sensor_id;sensor_type;location;lat;lon;timestamp;pressure;altitude;pressure_sealevel;temperature;humidity
35151;BME280;55720;51.972;4.624;2023-03-20T02:51:37;101237.03;;;5.89;100.00
35151;BME280;55720;51.972;4.624;2023-03-20T02:56:56;101238.97;;;5.88;100.00
35151;BME280;55720;51.972;4.624;2023-03-20T02:59:35;101241.91;;;5.92;100.00
35151;BME280;55720;51.972;4.624;2023-03-20T03:02:08;101211.13;;;5.91;100.00
35151;BME280;55720;51.972;4.624;2023-03-20T03:04:37;101215.16;;;5.94;100.00
35151;BME280;55720;51.972;4.624;2023-03-20T03:07:08;101213.03;;;5.91;100.00
35151;BME280;55720;51.972;4.624;2023-03-20T03:09:42;101206.25;;;5.88;100.00
35151;BME280;55720;51.972;4.624;2023-03-20T03:12:11;101210.03;;;5.92;100.00
35151;BME280;55720;51.972;4.624;2023-03-20T03:14:42;101209.22;;;5.92;100.00
35151;BME280;55720;51.972;4.624;2023-03-20T03:17:12;101211.28;;;6.00;100.00
35151;BME280;55720;51.972;4.624;2023-03-20T03:19:40;101205.53;;;6.02;100.00
35151;BME280;55720;51.972;4.624;2023-03-20T03:22:08;101195.44;;;6.02;100.00
35151;BME280;55720;51.972;4.624;2023-03-20T03:24:37;101186.66;;;6.05;100.00
35151;BME280;55720;51.972;4.624;2023-03-20T03:27:08;101180.41;;;6.05;100.00
35151;BME280;55720;51.972;4.624;2023-03-20T03:29:37;101179.59;;;6.04;100.00
35151;BME280;55720;51.972;4.624;2023-03-20T03:32:05;101179.91;;;6.03;100.00
35151;BME280;55720;51.972;4.624;2023-03-20T03:34:32;101179.09;;;6.02;100.00
35151;BME280;55720;51.972;4.624;2023-03-20T03:39:49;101168.19;;;6.02;100.00
35151;BME280;55720;51.972;4.624;2023-03-20T03:42:36;101167.38;;;6.02;100.00
35151;BME280;55720;51.972;4.624;2023-03-20T03:45:08;101175.53;;;6.02;100.00
35151;BME280;55720;51.972;4.624;2023-03-20T03:50:43;101163.22;;;6.04;100.00
35151;BME280;55720;51.972;4.624;2023-03-20T03:53:14;101164.34;;;6.03;100.00
35151;BME280;55720;51.972;4.624;2023-03-20T03:55:44;101158.38;;;6.01;100.00
35151;BME280;55720;51.972;4.624;2023-03-20T04:00:44;101155.16;;;5.99;100.00
35151;BME280;55720;51.972;4.624;2023-03-20T04:03:12;101146.38;;;6.02;100.00
35151;BME280;55720;51.972;4.624;2023-03-20T04:05:42;101152.91;;;6.01;100.00
35151;BME280;55720;51.972;4.624;2023-03-20T04:08:08;101149.09;;;6.02;100.00
35151;BME280;55720;51.972;4.624;2023-03-20T04:10:34;101142.63;;;5.98;100.00
35151;BME280;55720;51.972;4.624;2023-03-20T04:13:00;101143.16;;;6.00;100.00
35151;BME280;55720;51.972;4.624;2023-03-20T04:15:25;101139.88;;;5.98;100.00
35151;BME280;55720;51.972;4.624;2023-03-20T04:17:52;101152.09;;;6.01;100.00
35151;BME280;55720;51.972;4.624;2023-03-20T04:20:18;101152.09;;;6.01;100.00
35151;BME280;55720;51.972;4.624;2023-03-20T04:22:44;101155.97;;;6.00;100.00
35151;BME280;55720;51.972;4.624;2023-03-20T04:25:17;101157.56;;;6.01;100.00
35151;BME280;55720;51.972;4.624;2023-03-20T04:27:43;101156.78;;;6.00;100.00
35151;BME280;55720;51.972;4.624;2023-03-20T04:30:09;101165.22;;;5.99;100.00
35151;BME280;55720;51.972;4.624;2023-03-20T04:32:35;101158.09;;;6.03;100.00
35151;BME280;55720;51.972;4.624;2023-03-20T04:35:00;101166.28;;;6.03;100.00
35151;BME280;55720;51.972;4.624;2023-03-20T04:37:26;101165.16;;;6.04;100.00
35151;BME280;55720;51.972;4.624;2023-03-20T04:39:51;101154.78;;;6.06;100.00
35151;BME280;55720;51.972;4.624;2023-03-20T04:42:17;101150.13;;;6.06;100.00
35151;BME280;55720;51.972;4.624;2023-03-20T04:44:43;101151.22;;;6.05;100.00
35151;BME280;55720;51.972;4.624;2023-03-20T04:47:08;101147.19;;;6.03;100.00
35151;BME280;55720;51.972;4.624;2023-03-20T04:49:33;101137.38;;;6.02;100.00
35151;BME280;55720;51.972;4.624;2023-03-20T04:51:59;101136.56;;;6.01;100.00
35151;BME280;55720;51.972;4.624;2023-03-20T04:54:24;101135.47;;;6.02;100.00
35151;BME280;55720;51.972;4.624;2023-03-20T04:56:50;101131.94;;;6.02;100.00
35151;BME280;55720;51.972;4.624;2023-03-20T04:59:15;101123.47;;;6.03;100.00
35151;BME280;55720;51.972;4.624;2023-03-20T05:01:41;101119.94;;;6.03;100.00
35151;BME280;55720;51.972;4.624;2023-03-20T05:04:06;101124.56;;;6.02;100.00
35151;BME280;55720;51.972;4.624;2023-03-20T05:06:32;101123.16;;;6.05;100.00
35151;BME280;55720;51.972;4.624;2023-03-20T05:08:58;101120.44;;;6.05;100.00
35151;BME280;55720;51.972;4.624;2023-03-20T05:11:25;101130.03;;;6.02;100.00
35151;BME280;55720;51.972;4.624;2023-03-20T05:13:51;101127.28;;;6.02;100.00
35151;BME280;55720;51.972;4.624;2023-03-20T05:16:16;101128.09;;;6.03;100.00
35151;BME280;55720;51.972;4.624;2023-03-20T05:18:42;101134.88;;;6.05;100.00
35151;BME280;55720;51.972;4.624;2023-03-20T05:21:08;101145.28;;;6.03;100.00
35151;BME280;55720;51.972;4.624;2023-03-20T05:23:34;101145.28;;;6.03;100.00
35151;BME280;55720;51.972;4.624;2023-03-20T05:25:59;101145.78;;;6.05;100.00
35151;BME280;55720;51.972;4.624;2023-03-20T05:28:25;101149.59;;;6.04;100.00
35151;BME280;55720;51.972;4.624;2023-03-20T05:30:51;101144.16;;;6.04;100.00
35151;BME280;55720;51.972;4.624;2023-03-20T05:33:16;101147.19;;;6.03;100.00
35151;BME280;55720;51.972;4.624;2023-03-20T05:35:42;101151.22;;;6.05;100.00
35151;BME280;55720;51.972;4.624;2023-03-20T05:38:07;101153.69;;;6.07;100.00
35151;BME280;55720;51.972;4.624;2023-03-20T05:40:32;101157.72;;;6.09;100.00
35151;BME280;55720;51.972;4.624;2023-03-20T05:42:58;101158.81;;;6.08;100.00
35151;BME280;55720;51.972;4.624;2023-03-20T05:45:23;101153.09;;;6.10;100.00
35151;BME280;55720;51.972;4.624;2023-03-20T05:47:49;101160.44;;;6.09;100.00
35151;BME280;55720;51.972;4.624;2023-03-20T05:50:14;101153.38;;;6.08;100.00
35151;BME280;55720;51.972;4.624;2023-03-20T05:52:40;101159.63;;;6.09;100.00
35151;BME280;55720;51.972;4.624;2023-03-20T05:55:06;101168.13;;;6.07;100.00
35151;BME280;55720;51.972;4.624;2023-03-20T05:57:32;101159.63;;;6.09;100.00
35151;BME280;55720;51.972;4.624;2023-03-20T05:59:57;101165.09;;;6.09;100.00
35151;BME280;55720;51.972;4.624;2023-03-20T06:02:22;101160.97;;;6.11;100.00
35151;BME280;55720;51.972;4.624;2023-03-20T06:04:48;101169.16;;;6.11;100.00
35151;BME280;55720;51.972;4.624;2023-03-20T06:07:13;101179.16;;;6.16;100.00
35151;BME280;55720;51.972;4.624;2023-03-20T06:09:39;101167.97;;;6.17;100.00
35151;BME280;55720;51.972;4.624;2023-03-20T06:12:04;101177.47;;;6.20;100.00
35151;BME280;55720;51.972;4.624;2023-03-20T06:14:30;101173.31;;;6.22;100.00
35151;BME280;55720;51.972;4.624;2023-03-20T06:16:55;101170.03;;;6.25;100.00
35151;BME280;55720;51.972;4.624;2023-03-20T06:19:21;101178.13;;;6.30;100.00
35151;BME280;55720;51.972;4.624;2023-03-20T06:21:48;101179.75;;;6.31;100.00
35151;BME280;55720;51.972;4.624;2023-03-20T06:24:13;101177.53;;;6.33;100.00
35151;BME280;55720;51.972;4.624;2023-03-20T06:26:39;101170.69;;;6.36;100.00
35151;BME280;55720;51.972;4.624;2023-03-20T06:29:05;101167.88;;;6.41;100.00
35151;BME280;55720;51.972;4.624;2023-03-20T06:31:30;101166.50;;;6.43;100.00
35151;BME280;55720;51.972;4.624;2023-03-20T06:33:55;101168.91;;;6.45;100.00
35151;BME280;55720;51.972;4.624;2023-03-20T06:36:21;101158.81;;;6.46;100.00
35151;BME280;55720;51.972;4.624;2023-03-20T06:38:47;101160.94;;;6.49;100.00
35151;BME280;55720;51.972;4.624;2023-03-20T06:41:12;101156.28;;;6.49;100.00
35151;BME280;55720;51.972;4.624;2023-03-20T06:43:37;101149.13;;;6.53;100.00
35151;BME280;55720;51.972;4.624;2023-03-20T06:46:04;101158.63;;;6.56;100.00
35151;BME280;55720;51.972;4.624;2023-03-20T06:48:30;101157.03;;;6.55;100.00
35151;BME280;55720;51.972;4.624;2023-03-20T06:50:55;101152.91;;;6.57;100.00
35151;BME280;55720;51.972;4.624;2023-03-20T06:53:21;101154.81;;;6.57;100.00
35151;BME280;55720;51.972;4.624;2023-03-20T06:55:48;101157.25;;;6.58;100.00
35151;BME280;55720;51.972;4.624;2023-03-20T06:58:13;101151.78;;;6.58;100.00
35151;BME280;55720;51.972;4.624;2023-03-20T07:00:39;101159.44;;;6.56;100.00
35151;BME280;55720;51.972;4.624;2023-03-20T07:03:05;101153.19;;;6.56;100.00
35151;BME280;55720;51.972;4.624;2023-03-20T07:05:30;101154.81;;;6.57;100.00
35151;BME280;55720;51.972;4.624;2023-03-20T07:07:57;101145.13;;;6.64;100.00
35151;BME280;55720;51.972;4.624;2023-03-20T07:10:22;101138.25;;;6.67;100.00
35151;BME280;55720;51.972;4.624;2023-03-20T07:12:48;101139.06;;;6.67;100.00
35151;BME280;55720;51.972;4.624;2023-03-20T07:15:15;101133.13;;;6.65;100.00
35151;BME280;55720;51.972;4.624;2023-03-20T07:17:40;101138.47;;;6.70;100.00
35151;BME280;55720;51.972;4.624;2023-03-20T07:20:06;101130.72;;;6.77;100.00
35151;BME280;55720;51.972;4.624;2023-03-20T07:22:32;101129.31;;;6.80;100.00
35151;BME280;55720;51.972;4.624;2023-03-20T07:24:58;101122.94;;;6.84;100.00
35151;BME280;55720;51.972;4.624;2023-03-20T07:27:23;101118.81;;;6.87;100.00
35151;BME280;55720;51.972;4.624;2023-03-20T07:29:48;101121.56;;;7.01;100.00
35151;BME280;55720;51.972;4.624;2023-03-20T07:32:14;101120.53;;;6.97;100.00
35151;BME280;55720;51.972;4.624;2023-03-20T07:34:40;101117.63;;;7.07;100.00
35151;BME280;55720;51.972;4.624;2023-03-20T07:37:06;101124.59;;;7.13;100.00
35151;BME280;55720;51.972;4.624;2023-03-20T07:39:31;101128.44;;;7.12;100.00
35151;BME280;55720;51.972;4.624;2023-03-20T07:41:57;101132.56;;;7.09;100.00
35151;BME280;55720;51.972;4.624;2023-03-20T07:44:22;101134.53;;;7.09;100.00
35151;BME280;55720;51.972;4.624;2023-03-20T07:46:47;101134.81;;;7.07;100.00
35151;BME280;55720;51.972;4.624;2023-03-20T07:49:14;101141.38;;;7.06;100.00
35151;BME280;55720;51.972;4.624;2023-03-20T07:51:42;101145.25;;;7.05;100.00
35151;BME280;55720;51.972;4.624;2023-03-20T07:54:08;101148.75;;;7.06;100.00
35151;BME280;55720;51.972;4.624;2023-03-20T07:56:33;101148.34;;;6.99;100.00
35151;BME280;55720;51.972;4.624;2023-03-20T07:58:58;101155.94;;;7.02;100.00
35151;BME280;55720;51.972;4.624;2023-03-20T08:01:24;101150.28;;;6.98;100.00
35151;BME280;55720;51.972;4.624;2023-03-20T08:03:50;101165.31;;;6.96;100.00
35151;BME280;55720;51.972;4.624;2023-03-20T08:06:15;101169.44;;;6.79;100.00
35151;BME280;55720;51.972;4.624;2023-03-20T08:08:40;101175.25;;;6.73;100.00
35151;BME280;55720;51.972;4.624;2023-03-20T08:11:06;101196.81;;;6.74;100.00
35151;BME280;55720;51.972;4.624;2023-03-20T08:13:31;101204.59;;;6.81;100.00
35151;BME280;55720;51.972;4.624;2023-03-20T08:15:57;101204.72;;;6.76;100.00
35151;BME280;55720;51.972;4.624;2023-03-20T08:18:22;101209.56;;;6.79;100.00
35151;BME280;55720;51.972;4.624;2023-03-20T08:20:48;101231.50;;;6.87;100.00
35151;BME280;55720;51.972;4.624;2023-03-20T08:23:16;101243.03;;;6.84;100.00
35151;BME280;55720;51.972;4.624;2023-03-20T08:25:49;101242.22;;;6.84;100.00
35151;BME280;55720;51.972;4.624;2023-03-20T08:28:16;101255.28;;;6.87;100.00
35151;BME280;55720;51.972;4.624;2023-03-20T08:30:41;101268.78;;;6.97;100.00
35151;BME280;55720;51.972;4.624;2023-03-20T08:33:07;101271.78;;;6.96;100.00
35151;BME280;55720;51.972;4.624;2023-03-20T08:35:32;101274.88;;;7.08;100.00
35151;BME280;55720;51.972;4.624;2023-03-20T08:37:58;101271.50;;;6.97;100.00
35151;BME280;55720;51.972;4.624;2023-03-20T08:40:23;101276.50;;;7.09;100.00
35151;BME280;55720;51.972;4.624;2023-03-20T08:42:49;101286.94;;;7.20;100.00
35151;BME280;55720;51.972;4.624;2023-03-20T08:45:14;101272.25;;;7.16;100.00
35151;BME280;55720;51.972;4.624;2023-03-20T08:47:41;101276.56;;;7.36;100.00
35151;BME280;55720;51.972;4.624;2023-03-20T08:50:07;101267.38;;;7.46;100.00
35151;BME280;55720;51.972;4.624;2023-03-20T08:52:33;101272.28;;;7.62;100.00
35151;BME280;55720;51.972;4.624;2023-03-20T08:54:59;101265.91;;;7.80;100.00
35151;BME280;55720;51.972;4.624;2023-03-20T08:57:24;101248.56;;;7.58;100.00
35151;BME280;55720;51.972;4.624;2023-03-20T08:59:50;101237.75;;;7.66;100.00
35151;BME280;55720;51.972;4.624;2023-03-20T09:02:15;101230.66;;;7.52;100.00
35151;BME280;55720;51.972;4.624;2023-03-20T09:04:41;101224.53;;;7.27;100.00
35151;BME280;55720;51.972;4.624;2023-03-20T09:07:06;101230.25;;;7.45;100.00
35151;BME280;55720;51.972;4.624;2023-03-20T09:09:32;101218.91;;;7.37;100.00
35151;BME280;55720;51.972;4.624;2023-03-20T09:11:58;101216.88;;;7.57;100.00
35151;BME280;55720;51.972;4.624;2023-03-20T09:14:25;101215.69;;;7.63;100.00
35151;BME280;55720;51.972;4.624;2023-03-20T09:16:51;101214.47;;;7.55;100.00
35151;BME280;55720;51.972;4.624;2023-03-20T09:19:17;101208.59;;;7.62;100.00
35151;BME280;55720;51.972;4.624;2023-03-20T09:21:43;101211.31;;;7.75;100.00
35151;BME280;55720;51.972;4.624;2023-03-20T09:24:08;101221.03;;;7.68;100.00
35151;BME280;55720;51.972;4.624;2023-03-20T09:26:34;101199.50;;;7.66;100.00
35151;BME280;55720;51.972;4.624;2023-03-20T09:28:59;101204.44;;;7.91;100.00
35151;BME280;55720;51.972;4.624;2023-03-20T09:31:24;101200.69;;;7.87;100.00
35151;BME280;55720;51.972;4.624;2023-03-20T09:33:50;101195.63;;;7.67;100.00
35151;BME280;55720;51.972;4.624;2023-03-20T09:36:16;101199.38;;;7.71;100.00
35151;BME280;55720;51.972;4.624;2023-03-20T09:38:41;101196.56;;;7.63;100.00
35151;BME280;55720;51.972;4.624;2023-03-20T09:41:16;101215.16;;;7.74;100.00
35151;BME280;55720;51.972;4.624;2023-03-20T09:43:59;101215.88;;;7.53;100.00
35151;BME280;55720;51.972;4.624;2023-03-20T09:49:11;101214.97;;;7.71;100.00
35151;BME280;55720;51.972;4.624;2023-03-20T09:51:58;101225.28;;;8.01;100.00
35151;BME280;55720;51.972;4.624;2023-03-20T09:54:28;101215.97;;;8.02;100.00
35151;BME280;55720;51.972;4.624;2023-03-20T09:56:56;101202.25;;;8.16;100.00
35151;BME280;55720;51.972;4.624;2023-03-20T09:59:24;101202.06;;;8.12;100.00
35151;BME280;55720;51.972;4.624;2023-03-20T10:02:13;101188.50;;;8.21;100.00
35151;BME280;55720;51.972;4.624;2023-03-20T10:04:37;101187.16;;;8.18;100.00
35151;BME280;55720;51.972;4.624;2023-03-20T10:07:04;101168.44;;;8.12;100.00
35151;BME280;55720;51.972;4.624;2023-03-20T10:09:30;101172.72;;;8.40;100.00
35151;BME280;55720;51.972;4.624;2023-03-20T10:12:12;101167.16;;;8.45;100.00
35151;BME280;55720;51.972;4.624;2023-03-20T10:15:20;101154.78;;;8.48;100.00
35151;BME280;55720;51.972;4.624;2023-03-20T10:20:34;101142.81;;;8.44;100.00
35151;BME280;55720;51.972;4.624;2023-03-20T10:23:06;101128.84;;;8.45;100.00
35151;BME280;55720;51.972;4.624;2023-03-20T10:25:44;101124.09;;;8.37;100.00
35151;BME280;55720;51.972;4.624;2023-03-20T10:29:01;101117.94;;;8.54;100.00
35151;BME280;55720;51.972;4.624;2023-03-20T10:36:40;101114.38;;;8.75;100.00
35151;BME280;55720;51.972;4.624;2023-03-20T10:41:59;101093.50;;;8.88;100.00
35151;BME280;55720;51.972;4.624;2023-03-20T10:44:44;101083.09;;;8.99;100.00
35151;BME280;55720;51.972;4.624;2023-03-20T10:47:17;101091.44;;;8.94;100.00
35151;BME280;55720;51.972;4.624;2023-03-20T10:49:46;101083.97;;;8.77;100.00
35151;BME280;55720;51.972;4.624;2023-03-20T10:52:18;101083.03;;;8.81;100.00
35151;BME280;55720;51.972;4.624;2023-03-20T10:54:48;101073.84;;;8.55;100.00
35151;BME280;55720;51.972;4.624;2023-03-20T10:57:22;101070.72;;;8.70;100.00
35151;BME280;55720;51.972;4.624;2023-03-20T10:59:53;101074.16;;;8.54;100.00
35151;BME280;55720;51.972;4.624;2023-03-20T11:02:20;101061.41;;;8.80;100.00
35151;BME280;55720;51.972;4.624;2023-03-20T11:04:46;101057.00;;;9.01;100.00
35151;BME280;55720;51.972;4.624;2023-03-20T11:07:22;101042.06;;;9.16;100.00
35151;BME280;55720;51.972;4.624;2023-03-20T11:12:32;101045.78;;;9.20;100.00
35151;BME280;55720;51.972;4.624;2023-03-20T11:14:59;101043.22;;;9.23;100.00
35151;BME280;55720;51.972;4.624;2023-03-20T11:17:28;101037.47;;;8.94;100.00
35151;BME280;55720;51.972;4.624;2023-03-20T11:20:02;101043.06;;;8.80;100.00
35151;BME280;55720;51.972;4.624;2023-03-20T11:22:28;101048.59;;;8.89;100.00
35151;BME280;55720;51.972;4.624;2023-03-20T11:24:59;101039.16;;;9.04;100.00
35151;BME280;55720;51.972;4.624;2023-03-20T11:27:30;101036.22;;;9.00;100.00
35151;BME280;55720;51.972;4.624;2023-03-20T11:29:59;101025.81;;;9.19;100.00
35151;BME280;55720;51.972;4.624;2023-03-20T11:32:48;101026.91;;;9.10;100.00
35151;BME280;55720;51.972;4.624;2023-03-20T11:35:19;101028.50;;;9.02;100.00
35151;BME280;55720;51.972;4.624;2023-03-20T11:37:51;101021.16;;;9.28;100.00
35151;BME280;55720;51.972;4.624;2023-03-20T11:40:25;101018.41;;;9.37;100.00
35151;BME280;55720;51.972;4.624;2023-03-20T11:42:57;101020.53;;;9.49;100.00
35151;BME280;55720;51.972;4.624;2023-03-20T11:45:38;101017.00;;;9.39;100.00
35151;BME280;55720;51.972;4.624;2023-03-20T11:48:05;101028.75;;;9.40;100.00
35151;BME280;55720;51.972;4.624;2023-03-20T11:50:41;101034.97;;;9.06;100.00
35151;BME280;55720;51.972;4.624;2023-03-20T11:53:21;101028.53;;;9.11;100.00
35151;BME280;55720;51.972;4.624;2023-03-20T11:58:25;101032.72;;;9.17;100.00
35151;BME280;55720;51.972;4.624;2023-03-20T12:00:54;101028.88;;;9.26;100.00
35151;BME280;55720;51.972;4.624;2023-03-20T12:03:40;101037.56;;;9.11;100.00
35151;BME280;55720;51.972;4.624;2023-03-20T12:06:12;101045.06;;;8.97;100.00
35151;BME280;55720;51.972;4.624;2023-03-20T12:08:39;101043.13;;;8.89;100.00
35151;BME280;55720;51.972;4.624;2023-03-20T12:13:56;101025.19;;;9.31;100.00
35151;BME280;55720;51.972;4.624;2023-03-20T12:16:26;101030.84;;;9.34;100.00
35151;BME280;55720;51.972;4.624;2023-03-20T12:19:17;101023.13;;;9.36;100.00
35151;BME280;55720;51.972;4.624;2023-03-20T12:24:35;101017.78;;;9.49;100.00
35151;BME280;55720;51.972;4.624;2023-03-20T12:27:20;101024.22;;;9.44;100.00
35151;BME280;55720;51.972;4.624;2023-03-20T12:29:50;101021.16;;;9.28;100.00
35151;BME280;55720;51.972;4.624;2023-03-20T12:32:35;101025.03;;;9.27;100.00
35151;BME280;55720;51.972;4.624;2023-03-20T12:35:29;101035.16;;;9.18;100.00
35151;BME280;55720;51.972;4.624;2023-03-20T12:37:55;101036.75;;;9.19;100.00
35151;BME280;55720;51.972;4.624;2023-03-20T12:40:33;101046.78;;;9.24;100.00
35151;BME280;55720;51.972;4.624;2023-03-20T12:43:13;101054.25;;;9.01;100.00
35151;BME280;55720;51.972;4.624;2023-03-20T12:46:07;101052.50;;;9.05;100.00
35151;BME280;55720;51.972;4.624;2023-03-20T12:48:40;101063.00;;;9.12;100.00
35151;BME280;55720;51.972;4.624;2023-03-20T12:57:18;101093.16;;;8.81;100.00
35151;BME280;55720;51.972;4.624;2023-03-20T13:00:07;101104.50;;;8.66;100.00
35151;BME280;55720;51.972;4.624;2023-03-20T13:02:54;101137.41;;;8.74;100.00
35151;BME280;55720;51.972;4.624;2023-03-20T13:10:39;101172.19;;;8.74;100.00
35151;BME280;55720;51.972;4.624;2023-03-20T13:18:39;101207.44;;;8.75;100.00
35151;BME280;55720;51.972;4.624;2023-03-20T13:21:15;101199.06;;;8.72;100.00
35151;BME280;55720;51.972;4.624;2023-03-20T13:23:53;101209.00;;;8.90;100.00
35151;BME280;55720;51.972;4.624;2023-03-20T13:26:28;101219.09;;;8.81;100.00
35151;BME280;55720;51.972;4.624;2023-03-20T13:31:50;101217.84;;;8.65;100.00
35151;BME280;55720;51.972;4.624;2023-03-20T13:37:12;101233.34;;;8.69;100.00
35151;BME280;55720;51.972;4.624;2023-03-20T13:39:47;101233.22;;;8.52;100.00
35151;BME280;55720;51.972;4.624;2023-03-20T13:42:19;101259.53;;;8.62;100.00
35151;BME280;55720;51.972;4.624;2023-03-20T13:44:46;101269.25;;;8.68;100.00
35151;BME280;55720;51.972;4.624;2023-03-20T13:47:25;101289.00;;;8.78;100.00
35151;BME280;55720;51.972;4.624;2023-03-20T13:49:59;101301.81;;;8.92;100.00
35151;BME280;55720;51.972;4.624;2023-03-20T13:52:41;101307.16;;;8.74;100.00
35151;BME280;55720;51.972;4.624;2023-03-20T13:55:34;101320.91;;;8.83;100.00
35151;BME280;55720;51.972;4.624;2023-03-20T13:58:33;101328.44;;;8.77;100.00
35151;BME280;55720;51.972;4.624;2023-03-20T14:03:50;101361.13;;;8.60;100.00
35151;BME280;55720;51.972;4.624;2023-03-20T14:06:53;101374.63;;;8.57;100.00
35151;BME280;55720;51.972;4.624;2023-03-20T14:09:29;101379.38;;;8.51;100.00
35151;BME280;55720;51.972;4.624;2023-03-20T14:11:59;101400.03;;;8.44;100.00
35151;BME280;55720;51.972;4.624;2023-03-20T14:14:30;101413.84;;;8.38;100.00
35151;BME280;55720;51.972;4.624;2023-03-20T14:17:14;101422.88;;;8.39;100.00
35151;BME280;55720;51.972;4.624;2023-03-20T14:19:40;101441.69;;;8.40;100.00
35151;BME280;55720;51.972;4.624;2023-03-20T14:22:17;101474.03;;;8.38;100.00
35151;BME280;55720;51.972;4.624;2023-03-20T14:25:17;101490.66;;;8.42;100.00
35151;BME280;55720;51.972;4.624;2023-03-20T14:27:55;101505.44;;;8.41;100.00
35151;BME280;55720;51.972;4.624;2023-03-20T14:35:49;101537.81;;;8.53;100.00
35151;BME280;55720;51.972;4.624;2023-03-20T14:38:29;101547.53;;;8.45;100.00
35151;BME280;55720;51.972;4.624;2023-03-20T14:41:18;101582.41;;;8.53;100.00
35151;BME280;55720;51.972;4.624;2023-03-20T14:43:57;101597.50;;;8.51;100.00
35151;BME280;55720;51.972;4.624;2023-03-20T14:49:22;101622.13;;;8.51;100.00
35151;BME280;55720;51.972;4.624;2023-03-20T14:51:49;101627.00;;;8.54;100.00
35151;BME280;55720;51.972;4.624;2023-03-20T14:54:22;101566.41;;;8.60;100.00
35151;BME280;55720;51.972;4.624;2023-03-20T14:56:48;101572.19;;;8.59;100.00
35151;BME280;55720;51.972;4.624;2023-03-20T14:59:16;101596.81;;;8.59;100.00
35151;BME280;55720;51.972;4.624;2023-03-20T15:04:24;101628.03;;;8.58;100.00
35151;BME280;55720;51.972;4.624;2023-03-20T15:07:02;101642.84;;;8.57;100.00
35151;BME280;55720;51.972;4.624;2023-03-20T15:09:30;101666.94;;;8.55;100.00
35151;BME280;55720;51.972;4.624;2023-03-20T15:11:57;101683.41;;;8.68;100.00
35151;BME280;55720;51.972;4.624;2023-03-20T15:14:32;101692.66;;;8.72;100.00
35151;BME280;55720;51.972;4.624;2023-03-20T15:16:59;101726.88;;;8.75;100.00
35151;BME280;55720;51.972;4.624;2023-03-20T15:19:24;101746.16;;;8.83;100.00
35151;BME280;55720;51.972;4.624;2023-03-20T15:21:50;101760.50;;;8.75;100.00
35151;BME280;55720;51.972;4.624;2023-03-20T15:24:19;101773.03;;;8.81;100.00
35151;BME280;55720;51.972;4.624;2023-03-20T15:26:44;101785.31;;;8.84;100.00
35151;BME280;55720;51.972;4.624;2023-03-20T15:29:13;101815.53;;;8.79;100.00
35151;BME280;55720;51.972;4.624;2023-03-20T15:31:41;101829.28;;;8.74;100.00
35151;BME280;55720;51.972;4.624;2023-03-20T15:34:19;101852.00;;;8.74;100.00
35151;BME280;55720;51.972;4.624;2023-03-20T15:36:46;101864.00;;;8.78;100.00
35151;BME280;55720;51.972;4.624;2023-03-20T15:39:13;101886.41;;;8.80;100.00
35151;BME280;55720;51.972;4.624;2023-03-20T15:41:44;101900.91;;;8.81;100.00
35151;BME280;55720;51.972;4.624;2023-03-20T15:46:39;101947.75;;;8.79;100.00
35151;BME280;55720;51.972;4.624;2023-03-20T15:49:04;101971.03;;;8.82;100.00
35151;BME280;55720;51.972;4.624;2023-03-20T15:51:30;101987.78;;;8.75;100.00
35151;BME280;55720;51.972;4.624;2023-03-20T15:53:58;102013.78;;;8.78;100.00
35151;BME280;55720;51.972;4.624;2023-03-20T15:56:25;102060.84;;;8.80;100.00
35151;BME280;55720;51.972;4.624;2023-03-20T15:58:52;102101.91;;;8.85;100.00
35151;BME280;55720;51.972;4.624;2023-03-20T16:01:24;102133.34;;;8.87;100.00
35151;BME280;55720;51.972;4.624;2023-03-20T16:03:51;102162.06;;;8.90;100.00
35151;BME280;55720;51.972;4.624;2023-03-20T16:06:20;102201.78;;;8.93;100.00
35151;BME280;55720;51.972;4.624;2023-03-20T16:08:58;102226.13;;;8.94;100.00
35151;BME280;55720;51.972;4.624;2023-03-20T16:11:24;102251.38;;;8.91;100.00
35151;BME280;55720;51.972;4.624;2023-03-20T16:13:50;102257.16;;;8.89;100.00
35151;BME280;55720;51.972;4.624;2023-03-20T16:16:19;102291.38;;;8.87;100.00
35151;BME280;55720;51.972;4.624;2023-03-20T16:18:46;102308.13;;;8.85;100.00
35151;BME280;55720;51.972;4.624;2023-03-20T16:21:17;102308.94;;;8.86;100.00
35151;BME280;55720;51.972;4.624;2023-03-20T16:23:47;102331.13;;;8.84;100.00
35151;BME280;55720;51.972;4.624;2023-03-20T16:26:19;102344.56;;;8.86;100.00
35151;BME280;55720;51.972;4.624;2023-03-20T16:28:51;102354.13;;;8.88;100.00
35151;BME280;55720;51.972;4.624;2023-03-20T16:31:30;102357.94;;;8.93;100.00
35151;BME280;55720;51.972;4.624;2023-03-20T16:33:59;102356.28;;;8.92;100.00
35151;BME280;55720;51.972;4.624;2023-03-20T16:36:29;102374.88;;;8.95;100.00
35151;BME280;55720;51.972;4.624;2023-03-20T16:39:00;102390.47;;;8.99;100.00
35151;BME280;55720;51.972;4.624;2023-03-20T16:41:31;102398.69;;;9.04;100.00
35151;BME280;55720;51.972;4.624;2023-03-20T16:44:02;102401.38;;;9.09;100.00
35151;BME280;55720;51.972;4.624;2023-03-20T16:46:29;102407.41;;;9.11;100.00
35151;BME280;55720;51.972;4.624;2023-03-20T16:52:00;102409.00;;;9.12;100.00
35151;BME280;55720;51.972;4.624;2023-03-20T16:54:29;102412.31;;;9.14;100.00
35151;BME280;55720;51.972;4.624;2023-03-20T16:56:55;102410.13;;;9.11;100.00
35151;BME280;55720;51.972;4.624;2023-03-20T16:59:22;102394.47;;;9.12;100.00
35151;BME280;55720;51.972;4.624;2023-03-20T17:01:49;102409.59;;;9.09;100.00
35151;BME280;55720;51.972;4.624;2023-03-20T17:04:21;102397.28;;;9.07;100.00
35151;BME280;55720;51.972;4.624;2023-03-20T17:06:57;102415.06;;;9.09;100.00
35151;BME280;55720;51.972;4.624;2023-03-20T17:09:58;102420.03;;;9.07;100.00
35151;BME280;55720;51.972;4.624;2023-03-20T17:12:29;102424.38;;;9.08;100.00